sensor_id;sensor_type;location;lat;lon;timestamp;P1;durP1;ratioP1;P2;durP2;ratioP2
83055;SDS011;72881;43.514;1.510;2024-02-21T00:00:34;1.63;;;0.80;;
83055;SDS011;72881;43.514;1.510;2024-02-21T00:03:00;1.70;;;0.80;;
83055;SDS011;72881;43.514;1.510;2024-02-21T00:05:27;1.83;;;0.80;;
83055;SDS011;72881;43.514;1.510;2024-02-21T00:07:52;2.05;;;0.82;;
83055;SDS011;72881;43.514;1.510;2024-02-21T00:10:18;1.75;;;0.90;;
83055;SDS011;72881;43.514;1.510;2024-02-21T00:12:43;1.92;;;1.00;;
83055;SDS011;72881;43.514;1.510;2024-02-21T00:15:09;1.88;;;0.80;;
83055;SDS011;72881;43.514;1.510;2024-02-21T00:17:34;1.45;;;0.70;;
83055;SDS011;72881;43.514;1.510;2024-02-21T00:20:00;1.98;;;0.90;;
83055;SDS011;72881;43.514;1.510;2024-02-21T00:22:25;1.80;;;0.70;;
83055;SDS011;72881;43.514;1.510;2024-02-21T00:24:54;2.42;;;0.90;;
83055;SDS011;72881;43.514;1.510;2024-02-21T00:27:19;2.30;;;0.98;;
83055;SDS011;72881;43.514;1.510;2024-02-21T00:29:44;3.10;;;0.80;;
83055;SDS011;72881;43.514;1.510;2024-02-21T00:32:10;1.65;;;0.73;;
83055;SDS011;72881;43.514;1.510;2024-02-21T00:34:35;2.03;;;1.00;;
83055;SDS011;72881;43.514;1.510;2024-02-21T00:37:01;1.77;;;0.80;;
83055;SDS011;72881;43.514;1.510;2024-02-21T00:39:26;3.13;;;0.90;;
83055;SDS011;72881;43.514;1.510;2024-02-21T00:41:51;3.35;;;0.90;;
83055;SDS011;72881;43.514;1.510;2024-02-21T00:44:17;2.10;;;1.10;;
83055;SDS011;72881;43.514;1.510;2024-02-21T00:46:42;2.53;;;0.95;;
83055;SDS011;72881;43.514;1.510;2024-02-21T00:49:07;1.88;;;0.90;;
83055;SDS011;72881;43.514;1.510;2024-02-21T00:51:33;2.17;;;0.95;;
83055;SDS011;72881;43.514;1.510;2024-02-21T00:53:58;2.13;;;0.95;;
83055;SDS011;72881;43.514;1.510;2024-02-21T00:56:24;3.00;;;0.80;;
83055;SDS011;72881;43.514;1.510;2024-02-21T00:58:49;2.17;;;1.00;;
83055;SDS011;72881;43.514;1.510;2024-02-21T01:01:20;1.80;;;0.90;;
83055;SDS011;72881;43.514;1.510;2024-02-21T01:03:47;2.97;;;0.90;;
83055;SDS011;72881;43.514;1.510;2024-02-21T01:06:12;1.88;;;0.80;;
83055;SDS011;72881;43.514;1.510;2024-02-21T01:08:38;2.03;;;0.85;;
83055;SDS011;72881;43.514;1.510;2024-02-21T01:11:03;1.92;;;1.10;;
83055;SDS011;72881;43.514;1.510;2024-02-21T01:13:29;1.70;;;0.80;;
83055;SDS011;72881;43.514;1.510;2024-02-21T01:15:54;3.22;;;0.90;;
83055;SDS011;72881;43.514;1.510;2024-02-21T01:18:19;2.03;;;0.85;;
83055;SDS011;72881;43.514;1.510;2024-02-21T01:20:45;2.47;;;1.00;;
83055;SDS011;72881;43.514;1.510;2024-02-21T01:23:10;1.75;;;0.70;;
83055;SDS011;72881;43.514;1.510;2024-02-21T01:25:35;2.08;;;1.10;;
83055;SDS011;72881;43.514;1.510;2024-02-21T01:28:01;2.33;;;1.02;;
83055;SDS011;72881;43.514;1.510;2024-02-21T01:30:28;1.80;;;0.80;;
83055;SDS011;72881;43.514;1.510;2024-02-21T01:32:53;2.85;;;1.05;;
83055;SDS011;72881;43.514;1.510;2024-02-21T01:35:19;2.28;;;0.95;;
83055;SDS011;72881;43.514;1.510;2024-02-21T01:37:44;2.70;;;1.20;;
83055;SDS011;72881;43.514;1.510;2024-02-21T01:40:10;1.77;;;0.85;;
83055;SDS011;72881;43.514;1.510;2024-02-21T01:42:39;2.67;;;1.00;;
83055;SDS011;72881;43.514;1.510;2024-02-21T01:45:07;1.83;;;0.95;;
83055;SDS011;72881;43.514;1.510;2024-02-21T01:47:33;1.95;;;0.82;;
83055;SDS011;72881;43.514;1.510;2024-02-21T01:49:58;2.13;;;1.00;;
83055;SDS011;72881;43.514;1.510;2024-02-21T01:52:24;2.13;;;0.90;;
83055;SDS011;72881;43.514;1.510;2024-02-21T01:54:49;1.88;;;1.08;;
83055;SDS011;72881;43.514;1.510;2024-02-21T01:57:15;1.40;;;0.80;;
83055;SDS011;72881;43.514;1.510;2024-02-21T01:59:40;1.63;;;0.80;;
83055;SDS011;72881;43.514;1.510;2024-02-21T02:02:06;1.90;;;0.95;;
83055;SDS011;72881;43.514;1.510;2024-02-21T02:04:31;1.70;;;0.80;;
83055;SDS011;72881;43.514;1.510;2024-02-21T02:06:57;2.08;;;0.88;;
83055;SDS011;72881;43.514;1.510;2024-02-21T02:09:25;1.98;;;0.90;;
83055;SDS011;72881;43.514;1.510;2024-02-21T02:11:50;2.72;;;1.00;;
83055;SDS011;72881;43.514;1.510;2024-02-21T02:14:16;2.25;;;1.02;;
83055;SDS011;72881;43.514;1.510;2024-02-21T02:16:41;2.40;;;1.20;;
83055;SDS011;72881;43.514;1.510;2024-02-21T02:19:07;1.63;;;0.90;;
83055;SDS011;72881;43.514;1.510;2024-02-21T02:21:39;1.73;;;1.02;;
83055;SDS011;72881;43.514;1.510;2024-02-21T02:24:05;2.15;;;1.02;;
83055;SDS011;72881;43.514;1.510;2024-02-21T02:26:31;2.00;;;0.95;;
83055;SDS011;72881;43.514;1.510;2024-02-21T02:28:56;2.40;;;0.90;;
83055;SDS011;72881;43.514;1.510;2024-02-21T02:31:22;2.67;;;1.10;;
83055;SDS011;72881;43.514;1.510;2024-02-21T02:33:47;1.77;;;0.90;;
83055;SDS011;72881;43.514;1.510;2024-02-21T02:36:13;2.67;;;1.00;;
83055;SDS011;72881;43.514;1.510;2024-02-21T02:38:38;2.13;;;1.08;;
83055;SDS011;72881;43.514;1.510;2024-02-21T02:41:04;2.10;;;1.08;;
83055;SDS011;72881;43.514;1.510;2024-02-21T02:43:30;1.42;;;0.90;;
83055;SDS011;72881;43.514;1.510;2024-02-21T02:45:56;2.13;;;0.95;;
83055;SDS011;72881;43.514;1.510;2024-02-21T02:48:22;2.03;;;1.13;;
83055;SDS011;72881;43.514;1.510;2024-02-21T02:50:47;2.13;;;0.90;;
83055;SDS011;72881;43.514;1.510;2024-02-21T02:53:14;1.70;;;0.90;;
83055;SDS011;72881;43.514;1.510;2024-02-21T02:55:40;1.92;;;0.98;;
83055;SDS011;72881;43.514;1.510;2024-02-21T02:58:05;1.80;;;0.90;;
83055;SDS011;72881;43.514;1.510;2024-02-21T03:00:30;1.90;;;0.98;;
83055;SDS011;72881;43.514;1.510;2024-02-21T03:02:56;2.67;;;1.00;;
83055;SDS011;72881;43.514;1.510;2024-02-21T03:05:21;2.03;;;0.93;;
83055;SDS011;72881;43.514;1.510;2024-02-21T03:07:47;2.67;;;1.00;;
83055;SDS011;72881;43.514;1.510;2024-02-21T03:10:14;2.58;;;1.17;;
83055;SDS011;72881;43.514;1.510;2024-02-21T03:12:41;1.52;;;0.90;;
83055;SDS011;72881;43.514;1.510;2024-02-21T03:15:07;2.33;;;1.00;;
83055;SDS011;72881;43.514;1.510;2024-02-21T03:17:33;1.90;;;1.00;;
83055;SDS011;72881;43.514;1.510;2024-02-21T03:20:02;2.15;;;1.00;;
83055;SDS011;72881;43.514;1.510;2024-02-21T03:24:59;2.13;;;1.00;;
83055;SDS011;72881;43.514;1.510;2024-02-21T03:27:24;3.05;;;1.17;;
83055;SDS011;72881;43.514;1.510;2024-02-21T03:29:50;2.10;;;0.90;;
83055;SDS011;72881;43.514;1.510;2024-02-21T03:32:15;1.95;;;0.88;;
83055;SDS011;72881;43.514;1.510;2024-02-21T03:34:40;2.00;;;0.90;;
83055;SDS011;72881;43.514;1.510;2024-02-21T03:37:06;2.13;;;0.90;;
83055;SDS011;72881;43.514;1.510;2024-02-21T03:39:31;2.75;;;1.00;;
83055;SDS011;72881;43.514;1.510;2024-02-21T03:41:57;1.60;;;0.80;;
83055;SDS011;72881;43.514;1.510;2024-02-21T03:44:25;1.85;;;0.80;;
83055;SDS011;72881;43.514;1.510;2024-02-21T03:46:50;2.03;;;0.80;;
83055;SDS011;72881;43.514;1.510;2024-02-21T03:49:16;2.00;;;1.00;;
83055;SDS011;72881;43.514;1.510;2024-02-21T03:51:41;2.08;;;1.00;;
83055;SDS011;72881;43.514;1.510;2024-02-21T03:54:07;2.35;;;0.90;;
83055;SDS011;72881;43.514;1.510;2024-02-21T03:56:32;2.45;;;1.10;;
83055;SDS011;72881;43.514;1.510;2024-02-21T03:59:02;2.25;;;1.10;;
83055;SDS011;72881;43.514;1.510;2024-02-21T04:01:27;1.80;;;1.00;;
83055;SDS011;72881;43.514;1.510;2024-02-21T04:03:53;1.88;;;1.00;;
83055;SDS011;72881;43.514;1.510;2024-02-21T04:06:19;2.30;;;0.95;;
83055;SDS011;72881;43.514;1.510;2024-02-21T04:08:45;2.28;;;1.10;;
83055;SDS011;72881;43.514;1.510;2024-02-21T04:11:10;2.17;;;1.15;;
83055;SDS011;72881;43.514;1.510;2024-02-21T04:13:35;2.40;;;1.00;;
83055;SDS011;72881;43.514;1.510;2024-02-21T04:16:01;2.38;;;1.10;;
83055;SDS011;72881;43.514;1.510;2024-02-21T04:18:26;1.85;;;1.00;;
83055;SDS011;72881;43.514;1.510;2024-02-21T04:20:52;2.85;;;1.10;;
83055;SDS011;72881;43.514;1.510;2024-02-21T04:23:17;1.98;;;1.05;;
83055;SDS011;72881;43.514;1.510;2024-02-21T04:25:42;2.17;;;1.00;;
83055;SDS011;72881;43.514;1.510;2024-02-21T04:28:08;3.00;;;1.20;;
83055;SDS011;72881;43.514;1.510;2024-02-21T04:30:33;2.60;;;1.08;;
83055;SDS011;72881;43.514;1.510;2024-02-21T04:32:58;1.75;;;1.05;;
83055;SDS011;72881;43.514;1.510;2024-02-21T04:35:24;2.38;;;1.17;;
83055;SDS011;72881;43.514;1.510;2024-02-21T04:37:49;2.58;;;1.30;;
83055;SDS011;72881;43.514;1.510;2024-02-21T04:40:15;2.03;;;1.00;;
83055;SDS011;72881;43.514;1.510;2024-02-21T04:42:41;2.05;;;1.00;;
83055;SDS011;72881;43.514;1.510;2024-02-21T04:45:07;2.00;;;1.00;;
83055;SDS011;72881;43.514;1.510;2024-02-21T04:47:33;1.42;;;0.93;;
83055;SDS011;72881;43.514;1.510;2024-02-21T04:49:58;1.63;;;0.80;;
83055;SDS011;72881;43.514;1.510;2024-02-21T04:52:23;2.10;;;1.08;;
83055;SDS011;72881;43.514;1.510;2024-02-21T04:54:49;2.47;;;1.00;;
83055;SDS011;72881;43.514;1.510;2024-02-21T04:57:15;2.28;;;1.20;;
83055;SDS011;72881;43.514;1.510;2024-02-21T04:59:43;3.63;;;1.20;;
83055;SDS011;72881;43.514;1.510;2024-02-21T05:02:09;2.38;;;1.17;;
83055;SDS011;72881;43.514;1.510;2024-02-21T05:04:35;2.78;;;1.00;;
83055;SDS011;72881;43.514;1.510;2024-02-21T05:07:02;2.45;;;1.23;;
83055;SDS011;72881;43.514;1.510;2024-02-21T05:09:27;3.35;;;1.30;;
83055;SDS011;72881;43.514;1.510;2024-02-21T05:11:52;2.10;;;1.10;;
83055;SDS011;72881;43.514;1.510;2024-02-21T05:14:18;2.22;;;1.20;;
83055;SDS011;72881;43.514;1.510;2024-02-21T05:16:43;1.60;;;1.10;;
83055;SDS011;72881;43.514;1.510;2024-02-21T05:19:08;2.20;;;1.25;;
83055;SDS011;72881;43.514;1.510;2024-02-21T05:21:34;1.92;;;1.20;;
83055;SDS011;72881;43.514;1.510;2024-02-21T05:23:59;2.13;;;1.15;;
83055;SDS011;72881;43.514;1.510;2024-02-21T05:26:25;2.35;;;1.05;;
83055;SDS011;72881;43.514;1.510;2024-02-21T05:28:52;2.00;;;1.13;;
83055;SDS011;72881;43.514;1.510;2024-02-21T05:31:17;2.80;;;1.30;;
83055;SDS011;72881;43.514;1.510;2024-02-21T05:33:43;2.78;;;1.20;;
83055;SDS011;72881;43.514;1.510;2024-02-21T05:36:09;2.10;;;1.00;;
83055;SDS011;72881;43.514;1.510;2024-02-21T05:38:34;1.85;;;1.05;;
83055;SDS011;72881;43.514;1.510;2024-02-21T05:41:00;2.45;;;1.05;;
83055;SDS011;72881;43.514;1.510;2024-02-21T05:43:26;2.03;;;1.10;;
83055;SDS011;72881;43.514;1.510;2024-02-21T05:45:51;2.88;;;1.30;;
83055;SDS011;72881;43.514;1.510;2024-02-21T05:48:16;2.10;;;1.13;;
83055;SDS011;72881;43.514;1.510;2024-02-21T05:50:42;1.65;;;1.05;;
83055;SDS011;72881;43.514;1.510;2024-02-21T05:53:07;2.38;;;1.08;;
83055;SDS011;72881;43.514;1.510;2024-02-21T05:55:33;2.80;;;1.33;;
83055;SDS011;72881;43.514;1.510;2024-02-21T05:57:58;2.00;;;1.13;;
83055;SDS011;72881;43.514;1.510;2024-02-21T06:00:23;2.05;;;1.10;;
83055;SDS011;72881;43.514;1.510;2024-02-21T06:02:49;1.80;;;1.10;;
83055;SDS011;72881;43.514;1.510;2024-02-21T06:05:14;1.60;;;1.05;;
83055;SDS011;72881;43.514;1.510;2024-02-21T06:07:40;2.25;;;1.13;;
83055;SDS011;72881;43.514;1.510;2024-02-21T06:10:06;2.28;;;1.23;;
83055;SDS011;72881;43.514;1.510;2024-02-21T06:12:32;3.28;;;1.00;;
83055;SDS011;72881;43.514;1.510;2024-02-21T06:14:57;2.38;;;1.20;;
83055;SDS011;72881;43.514;1.510;2024-02-21T06:17:23;2.42;;;1.30;;
83055;SDS011;72881;43.514;1.510;2024-02-21T06:19:48;2.35;;;1.17;;
83055;SDS011;72881;43.514;1.510;2024-02-21T06:22:13;2.33;;;1.02;;
83055;SDS011;72881;43.514;1.510;2024-02-21T06:24:39;2.35;;;1.00;;
83055;SDS011;72881;43.514;1.510;2024-02-21T06:27:04;1.60;;;1.08;;
83055;SDS011;72881;43.514;1.510;2024-02-21T06:29:33;2.30;;;1.15;;
83055;SDS011;72881;43.514;1.510;2024-02-21T06:31:58;1.73;;;1.00;;
83055;SDS011;72881;43.514;1.510;2024-02-21T06:34:24;1.80;;;1.05;;
83055;SDS011;72881;43.514;1.510;2024-02-21T06:36:50;3.33;;;1.10;;
83055;SDS011;72881;43.514;1.510;2024-02-21T06:39:16;2.80;;;1.00;;
83055;SDS011;72881;43.514;1.510;2024-02-21T06:41:41;3.88;;;1.20;;
83055;SDS011;72881;43.514;1.510;2024-02-21T06:44:07;1.95;;;1.20;;
83055;SDS011;72881;43.514;1.510;2024-02-21T06:46:32;1.98;;;1.38;;
83055;SDS011;72881;43.514;1.510;2024-02-21T06:49:01;2.45;;;0.95;;
83055;SDS011;72881;43.514;1.510;2024-02-21T06:51:27;2.15;;;1.15;;
83055;SDS011;72881;43.514;1.510;2024-02-21T06:53:53;2.40;;;1.20;;
83055;SDS011;72881;43.514;1.510;2024-02-21T06:56:18;2.95;;;1.23;;
83055;SDS011;72881;43.514;1.510;2024-02-21T06:58:44;2.70;;;1.08;;
83055;SDS011;72881;43.514;1.510;2024-02-21T07:01:09;4.25;;;1.33;;
83055;SDS011;72881;43.514;1.510;2024-02-21T07:03:35;3.97;;;1.40;;
83055;SDS011;72881;43.514;1.510;2024-02-21T07:06:00;6.40;;;1.45;;
83055;SDS011;72881;43.514;1.510;2024-02-21T07:08:26;6.18;;;1.30;;
83055;SDS011;72881;43.514;1.510;2024-02-21T07:10:51;4.85;;;1.30;;
83055;SDS011;72881;43.514;1.510;2024-02-21T07:13:17;4.28;;;1.30;;
83055;SDS011;72881;43.514;1.510;2024-02-21T07:15:42;2.55;;;1.20;;
83055;SDS011;72881;43.514;1.510;2024-02-21T07:18:08;2.22;;;1.10;;
83055;SDS011;72881;43.514;1.510;2024-02-21T07:20:33;3.03;;;1.13;;
83055;SDS011;72881;43.514;1.510;2024-02-21T07:22:59;2.97;;;1.25;;
83055;SDS011;72881;43.514;1.510;2024-02-21T07:25:24;3.60;;;1.30;;
83055;SDS011;72881;43.514;1.510;2024-02-21T07:27:50;3.30;;;1.30;;
83055;SDS011;72881;43.514;1.510;2024-02-21T07:30:15;4.82;;;1.30;;
83055;SDS011;72881;43.514;1.510;2024-02-21T07:32:41;2.95;;;1.05;;
83055;SDS011;72881;43.514;1.510;2024-02-21T07:35:06;2.25;;;1.23;;
83055;SDS011;72881;43.514;1.510;2024-02-21T07:37:36;2.92;;;1.38;;
83055;SDS011;72881;43.514;1.510;2024-02-21T07:40:02;2.55;;;1.08;;
83055;SDS011;72881;43.514;1.510;2024-02-21T07:42:29;2.08;;;1.08;;
83055;SDS011;72881;43.514;1.510;2024-02-21T07:44:54;1.83;;;1.10;;
83055;SDS011;72881;43.514;1.510;2024-02-21T07:47:21;3.47;;;1.63;;
83055;SDS011;72881;43.514;1.510;2024-02-21T07:49:47;2.30;;;1.30;;
83055;SDS011;72881;43.514;1.510;2024-02-21T07:52:14;3.33;;;1.40;;
83055;SDS011;72881;43.514;1.510;2024-02-21T07:54:39;1.92;;;1.38;;
83055;SDS011;72881;43.514;1.510;2024-02-21T07:57:05;2.53;;;1.40;;
83055;SDS011;72881;43.514;1.510;2024-02-21T07:59:30;3.30;;;1.30;;
83055;SDS011;72881;43.514;1.510;2024-02-21T08:01:56;2.78;;;1.20;;
83055;SDS011;72881;43.514;1.510;2024-02-21T08:04:22;2.42;;;1.20;;
83055;SDS011;72881;43.514;1.510;2024-02-21T08:06:51;2.63;;;1.35;;
83055;SDS011;72881;43.514;1.510;2024-02-21T08:09:26;3.65;;;1.30;;
83055;SDS011;72881;43.514;1.510;2024-02-21T08:11:51;3.08;;;1.20;;
83055;SDS011;72881;43.514;1.510;2024-02-21T08:14:17;2.38;;;1.25;;
83055;SDS011;72881;43.514;1.510;2024-02-21T08:16:42;2.50;;;1.42;;
83055;SDS011;72881;43.514;1.510;2024-02-21T08:19:08;2.65;;;1.10;;
83055;SDS011;72881;43.514;1.510;2024-02-21T08:21:34;2.67;;;1.10;;
83055;SDS011;72881;43.514;1.510;2024-02-21T08:23:59;4.03;;;1.30;;
83055;SDS011;72881;43.514;1.510;2024-02-21T08:26:24;2.65;;;1.30;;
83055;SDS011;72881;43.514;1.510;2024-02-21T08:28:53;2.10;;;1.10;;
83055;SDS011;72881;43.514;1.510;2024-02-21T08:31:19;2.08;;;1.15;;
83055;SDS011;72881;43.514;1.510;2024-02-21T08:33:45;2.33;;;1.23;;
83055;SDS011;72881;43.514;1.510;2024-02-21T08:36:16;3.63;;;1.48;;
83055;SDS011;72881;43.514;1.510;2024-02-21T08:38:43;3.15;;;1.50;;
83055;SDS011;72881;43.514;1.510;2024-02-21T08:41:08;2.40;;;1.05;;
83055;SDS011;72881;43.514;1.510;2024-02-21T08:43:33;2.35;;;1.23;;
83055;SDS011;72881;43.514;1.510;2024-02-21T08:46:00;2.80;;;1.10;;
83055;SDS011;72881;43.514;1.510;2024-02-21T08:48:26;2.40;;;1.27;;
83055;SDS011;72881;43.514;1.510;2024-02-21T08:50:51;2.05;;;1.30;;
83055;SDS011;72881;43.514;1.510;2024-02-21T08:53:17;2.30;;;1.42;;
83055;SDS011;72881;43.514;1.510;2024-02-21T08:55:42;2.33;;;1.10;;
83055;SDS011;72881;43.514;1.510;2024-02-21T08:58:09;3.92;;;1.40;;
83055;SDS011;72881;43.514;1.510;2024-02-21T09:00:34;2.42;;;1.27;;
83055;SDS011;72881;43.514;1.510;2024-02-21T09:03:00;2.83;;;1.45;;
83055;SDS011;72881;43.514;1.510;2024-02-21T09:05:25;1.85;;;1.13;;
83055;SDS011;72881;43.514;1.510;2024-02-21T09:07:51;2.30;;;1.20;;
83055;SDS011;72881;43.514;1.510;2024-02-21T09:10:17;2.20;;;1.17;;
83055;SDS011;72881;43.514;1.510;2024-02-21T09:12:42;3.78;;;1.30;;
83055;SDS011;72881;43.514;1.510;2024-02-21T09:15:08;2.80;;;1.30;;
83055;SDS011;72881;43.514;1.510;2024-02-21T09:17:34;2.50;;;0.93;;
83055;SDS011;72881;43.514;1.510;2024-02-21T09:19:59;2.47;;;1.15;;
83055;SDS011;72881;43.514;1.510;2024-02-21T09:22:28;3.92;;;1.20;;
83055;SDS011;72881;43.514;1.510;2024-02-21T09:24:54;2.20;;;1.40;;
83055;SDS011;72881;43.514;1.510;2024-02-21T09:27:19;2.15;;;1.30;;
83055;SDS011;72881;43.514;1.510;2024-02-21T09:29:44;1.88;;;1.00;;
83055;SDS011;72881;43.514;1.510;2024-02-21T09:32:10;1.65;;;0.85;;
83055;SDS011;72881;43.514;1.510;2024-02-21T09:34:35;1.92;;;1.05;;
83055;SDS011;72881;43.514;1.510;2024-02-21T09:37:00;3.20;;;1.33;;
83055;SDS011;72881;43.514;1.510;2024-02-21T09:39:26;3.50;;;1.05;;
83055;SDS011;72881;43.514;1.510;2024-02-21T09:41:53;2.15;;;1.10;;
83055;SDS011;72881;43.514;1.510;2024-02-21T09:44:23;2.97;;;1.20;;
83055;SDS011;72881;43.514;1.510;2024-02-21T09:46:55;3.05;;;1.50;;
83055;SDS011;72881;43.514;1.510;2024-02-21T09:49:32;3.10;;;1.27;;
83055;SDS011;72881;43.514;1.510;2024-02-21T09:52:02;5.32;;;1.30;;
83055;SDS011;72881;43.514;1.510;2024-02-21T09:54:29;4.18;;;1.35;;
83055;SDS011;72881;43.514;1.510;2024-02-21T09:56:57;4.47;;;1.40;;
83055;SDS011;72881;43.514;1.510;2024-02-21T09:59:23;3.88;;;1.02;;
83055;SDS011;72881;43.514;1.510;2024-02-21T10:01:49;4.80;;;1.30;;
83055;SDS011;72881;43.514;1.510;2024-02-21T10:04:19;9.27;;;1.40;;
83055;SDS011;72881;43.514;1.510;2024-02-21T10:06:45;4.35;;;1.50;;
83055;SDS011;72881;43.514;1.510;2024-02-21T10:12:08;6.60;;;1.52;;
83055;SDS011;72881;43.514;1.510;2024-02-21T10:14:35;5.03;;;1.63;;
83055;SDS011;72881;43.514;1.510;2024-02-21T10:17:01;7.45;;;2.20;;
83055;SDS011;72881;43.514;1.510;2024-02-21T10:19:27;8.05;;;1.98;;
83055;SDS011;72881;43.514;1.510;2024-02-21T10:22:06;7.47;;;1.80;;
83055;SDS011;72881;43.514;1.510;2024-02-21T10:24:33;8.35;;;2.30;;
83055;SDS011;72881;43.514;1.510;2024-02-21T10:26:59;11.63;;;2.20;;
83055;SDS011;72881;43.514;1.510;2024-02-21T10:32:03;5.73;;;2.37;;
83055;SDS011;72881;43.514;1.510;2024-02-21T10:34:39;8.70;;;2.53;;
83055;SDS011;72881;43.514;1.510;2024-02-21T10:37:06;10.75;;;2.72;;
83055;SDS011;72881;43.514;1.510;2024-02-21T10:39:33;11.38;;;3.00;;
83055;SDS011;72881;43.514;1.510;2024-02-21T10:42:00;12.40;;;2.70;;
83055;SDS011;72881;43.514;1.510;2024-02-21T10:44:29;10.50;;;2.72;;
83055;SDS011;72881;43.514;1.510;2024-02-21T10:46:59;9.05;;;2.80;;
83055;SDS011;72881;43.514;1.510;2024-02-21T10:49:25;11.25;;;2.60;;
83055;SDS011;72881;43.514;1.510;2024-02-21T10:54:56;9.07;;;2.50;;
83055;SDS011;72881;43.514;1.510;2024-02-21T10:57:24;8.30;;;2.85;;
83055;SDS011;72881;43.514;1.510;2024-02-21T10:59:50;11.25;;;2.42;;
83055;SDS011;72881;43.514;1.510;2024-02-21T11:02:16;8.27;;;2.33;;
83055;SDS011;72881;43.514;1.510;2024-02-21T11:04:41;9.90;;;2.55;;
83055;SDS011;72881;43.514;1.510;2024-02-21T11:07:07;5.97;;;2.00;;
83055;SDS011;72881;43.514;1.510;2024-02-21T11:09:33;8.32;;;2.28;;
83055;SDS011;72881;43.514;1.510;2024-02-21T11:12:02;8.93;;;2.40;;
83055;SDS011;72881;43.514;1.510;2024-02-21T11:14:29;7.63;;;2.30;;
83055;SDS011;72881;43.514;1.510;2024-02-21T11:16:57;7.22;;;2.47;;
83055;SDS011;72881;43.514;1.510;2024-02-21T11:19:24;8.20;;;2.10;;
83055;SDS011;72881;43.514;1.510;2024-02-21T11:21:51;6.28;;;1.92;;
83055;SDS011;72881;43.514;1.510;2024-02-21T11:24:29;8.98;;;2.28;;
83055;SDS011;72881;43.514;1.510;2024-02-21T11:27:18;7.70;;;2.53;;
83055;SDS011;72881;43.514;1.510;2024-02-21T11:29:46;9.70;;;2.10;;
83055;SDS011;72881;43.514;1.510;2024-02-21T11:32:15;6.38;;;2.30;;
83055;SDS011;72881;43.514;1.510;2024-02-21T11:34:41;8.43;;;2.40;;
83055;SDS011;72881;43.514;1.510;2024-02-21T11:37:21;11.70;;;2.30;;
83055;SDS011;72881;43.514;1.510;2024-02-21T11:39:50;12.73;;;2.95;;
83055;SDS011;72881;43.514;1.510;2024-02-21T11:42:15;9.65;;;2.65;;
83055;SDS011;72881;43.514;1.510;2024-02-21T11:44:41;14.13;;;3.28;;
83055;SDS011;72881;43.514;1.510;2024-02-21T11:47:07;9.27;;;2.80;;
83055;SDS011;72881;43.514;1.510;2024-02-21T11:49:37;16.88;;;3.40;;
83055;SDS011;72881;43.514;1.510;2024-02-21T11:52:04;12.02;;;3.00;;
83055;SDS011;72881;43.514;1.510;2024-02-21T11:54:30;14.25;;;3.42;;
83055;SDS011;72881;43.514;1.510;2024-02-21T11:56:56;12.68;;;3.70;;
83055;SDS011;72881;43.514;1.510;2024-02-21T11:59:21;14.38;;;3.58;;
83055;SDS011;72881;43.514;1.510;2024-02-21T12:01:47;14.75;;;3.50;;
83055;SDS011;72881;43.514;1.510;2024-02-21T12:04:13;12.00;;;3.17;;
83055;SDS011;72881;43.514;1.510;2024-02-21T12:06:39;13.48;;;3.78;;
83055;SDS011;72881;43.514;1.510;2024-02-21T12:09:07;14.55;;;3.17;;
83055;SDS011;72881;43.514;1.510;2024-02-21T12:11:34;15.30;;;3.33;;
83055;SDS011;72881;43.514;1.510;2024-02-21T12:14:00;14.98;;;2.70;;
83055;SDS011;72881;43.514;1.510;2024-02-21T12:16:29;11.68;;;3.22;;
83055;SDS011;72881;43.514;1.510;2024-02-21T12:18:56;14.85;;;3.22;;
83055;SDS011;72881;43.514;1.510;2024-02-21T12:21:25;12.23;;;3.05;;
83055;SDS011;72881;43.514;1.510;2024-02-21T12:23:55;9.18;;;2.95;;
83055;SDS011;72881;43.514;1.510;2024-02-21T12:26:21;14.90;;;3.58;;
83055;SDS011;72881;43.514;1.510;2024-02-21T12:28:47;11.55;;;3.70;;
83055;SDS011;72881;43.514;1.510;2024-02-21T12:31:12;13.57;;;3.13;;
83055;SDS011;72881;43.514;1.510;2024-02-21T12:33:38;13.32;;;3.15;;
83055;SDS011;72881;43.514;1.510;2024-02-21T12:36:03;9.88;;;3.42;;
83055;SDS011;72881;43.514;1.510;2024-02-21T12:38:29;10.82;;;3.25;;
83055;SDS011;72881;43.514;1.510;2024-02-21T12:40:55;14.30;;;3.55;;
83055;SDS011;72881;43.514;1.510;2024-02-21T12:43:22;11.40;;;3.20;;
83055;SDS011;72881;43.514;1.510;2024-02-21T12:45:47;11.90;;;3.05;;
83055;SDS011;72881;43.514;1.510;2024-02-21T12:48:13;11.52;;;2.97;;
83055;SDS011;72881;43.514;1.510;2024-02-21T12:50:39;16.20;;;2.97;;
83055;SDS011;72881;43.514;1.510;2024-02-21T12:53:05;9.45;;;2.90;;
83055;SDS011;72881;43.514;1.510;2024-02-21T12:55:30;13.88;;;3.40;;
83055;SDS011;72881;43.514;1.510;2024-02-21T12:57:56;11.10;;;3.15;;
83055;SDS011;72881;43.514;1.510;2024-02-21T13:00:22;9.20;;;2.88;;
83055;SDS011;72881;43.514;1.510;2024-02-21T13:02:51;11.30;;;2.92;;
83055;SDS011;72881;43.514;1.510;2024-02-21T13:05:16;10.65;;;2.88;;
83055;SDS011;72881;43.514;1.510;2024-02-21T13:07:42;10.15;;;2.80;;
83055;SDS011;72881;43.514;1.510;2024-02-21T13:10:07;10.27;;;3.10;;
83055;SDS011;72881;43.514;1.510;2024-02-21T13:12:33;10.70;;;2.83;;
83055;SDS011;72881;43.514;1.510;2024-02-21T13:14:58;8.13;;;2.72;;
83055;SDS011;72881;43.514;1.510;2024-02-21T13:17:24;7.90;;;2.60;;
83055;SDS011;72881;43.514;1.510;2024-02-21T13:19:55;7.90;;;2.60;;
83055;SDS011;72881;43.514;1.510;2024-02-21T13:22:21;10.35;;;2.90;;
83055;SDS011;72881;43.514;1.510;2024-02-21T13:24:50;10.85;;;2.75;;
83055;SDS011;72881;43.514;1.510;2024-02-21T13:27:16;11.35;;;2.90;;
83055;SDS011;72881;43.514;1.510;2024-02-21T13:29:41;8.43;;;2.67;;
83055;SDS011;72881;43.514;1.510;2024-02-21T13:32:07;10.15;;;2.70;;
83055;SDS011;72881;43.514;1.510;2024-02-21T13:34:32;12.55;;;2.70;;
83055;SDS011;72881;43.514;1.510;2024-02-21T13:36:57;6.25;;;2.20;;
83055;SDS011;72881;43.514;1.510;2024-02-21T13:39:24;8.18;;;2.65;;
83055;SDS011;72881;43.514;1.510;2024-02-21T13:41:50;11.80;;;2.72;;
83055;SDS011;72881;43.514;1.510;2024-02-21T13:44:15;6.28;;;2.45;;
83055;SDS011;72881;43.514;1.510;2024-02-21T13:46:41;12.38;;;3.08;;
83055;SDS011;72881;43.514;1.510;2024-02-21T13:49:06;7.55;;;2.67;;
83055;SDS011;72881;43.514;1.510;2024-02-21T13:51:35;9.27;;;2.40;;
83055;SDS011;72881;43.514;1.510;2024-02-21T13:54:03;11.90;;;2.53;;
83055;SDS011;72881;43.514;1.510;2024-02-21T13:56:30;9.70;;;2.80;;
83055;SDS011;72881;43.514;1.510;2024-02-21T13:58:55;8.98;;;2.70;;
83055;SDS011;72881;43.514;1.510;2024-02-21T14:01:23;8.60;;;2.55;;
83055;SDS011;72881;43.514;1.510;2024-02-21T14:03:48;9.55;;;2.97;;
83055;SDS011;72881;43.514;1.510;2024-02-21T14:06:13;8.23;;;2.40;;
83055;SDS011;72881;43.514;1.510;2024-02-21T14:08:39;9.63;;;2.38;;
83055;SDS011;72881;43.514;1.510;2024-02-21T14:11:05;7.28;;;2.42;;
83055;SDS011;72881;43.514;1.510;2024-02-21T14:13:31;9.77;;;2.55;;
83055;SDS011;72881;43.514;1.510;2024-02-21T14:15:56;7.30;;;2.42;;
83055;SDS011;72881;43.514;1.510;2024-02-21T14:18:22;8.38;;;2.30;;
83055;SDS011;72881;43.514;1.510;2024-02-21T14:20:47;10.63;;;3.33;;
83055;SDS011;72881;43.514;1.510;2024-02-21T14:23:13;8.45;;;2.15;;
83055;SDS011;72881;43.514;1.510;2024-02-21T14:25:38;7.82;;;2.28;;
83055;SDS011;72881;43.514;1.510;2024-02-21T14:28:04;6.63;;;2.20;;
83055;SDS011;72881;43.514;1.510;2024-02-21T14:30:30;7.25;;;2.35;;
83055;SDS011;72881;43.514;1.510;2024-02-21T14:32:55;8.68;;;2.25;;
83055;SDS011;72881;43.514;1.510;2024-02-21T14:35:21;7.47;;;2.17;;
83055;SDS011;72881;43.514;1.510;2024-02-21T14:37:46;7.05;;;2.40;;
83055;SDS011;72881;43.514;1.510;2024-02-21T14:40:14;9.20;;;2.25;;
83055;SDS011;72881;43.514;1.510;2024-02-21T14:42:39;6.60;;;2.17;;
83055;SDS011;72881;43.514;1.510;2024-02-21T14:45:05;7.07;;;2.05;;
83055;SDS011;72881;43.514;1.510;2024-02-21T14:47:31;9.63;;;2.40;;
83055;SDS011;72881;43.514;1.510;2024-02-21T14:49:57;9.50;;;2.47;;